Terminal Aerodrome Forecast
Issued by NWS Twin Cities, MN

Home | Current Version | Previous Version | Graphics & Text | Print | Product List | Glossary On
Versions: 1 2 3 4 5 6 7 8 9 10 11 12 13 14 15 16 17 18 19 20 21 22 23 24 25 26 27 28 29 30 31
000
FTUS43 KMPX 221500 AAA
TAFMSP
TAF AMD
KMSP 221500Z 2215/2318 03008KT P6SM SCT007 OVC018
     FM221600 04010KT P6SM SCT012 OVC020
     FM230600 05010KT P6SM OVC015=

USA.gov is the U.S. government's official web portal to all federal, state and local government web resources and services.